createdAt,value
2019-01-29T00:00:26.787Z,4.93
2019-01-29T00:01:26.803Z,4.9
2019-01-29T00:02:26.564Z,4.87
2019-01-29T00:03:27.102Z,4.96
2019-01-29T00:04:26.695Z,4.96
2019-01-29T00:05:26.610Z,4.93
2019-01-29T00:06:27.143Z,4.99
2019-01-29T00:07:26.640Z,4.97
2019-01-29T00:08:26.918Z,4.92
2019-01-29T00:09:26.671Z,4.89
2019-01-29T00:10:26.945Z,4.99
2019-01-29T00:11:26.961Z,4.94
2019-01-29T00:12:26.718Z,4.97
2019-01-29T00:13:26.732Z,4.93
2019-01-29T00:14:26.755Z,4.89
2019-01-29T00:15:27.023Z,4.96
2019-01-29T00:16:26.779Z,4.93
2019-01-29T00:17:27.055Z,4.92
2019-01-29T00:18:26.826Z,4.94
2019-01-29T00:19:26.831Z,4.99
2019-01-29T00:20:27.101Z,4.97
2019-01-29T00:21:26.867Z,5
2019-01-29T00:22:35.655Z,4.89
2019-01-29T00:23:27.411Z,4.92
2019-01-29T00:24:27.426Z,4.9
2019-01-29T00:25:26.918Z,4.9
2019-01-29T00:26:27.453Z,4.93
2019-01-29T00:27:26.957Z,4.96
2019-01-29T00:28:27.485Z,4.9
2019-01-29T00:29:27.242Z,5
2019-01-29T00:30:29.457Z,4.93
2019-01-29T00:31:27.276Z,4.93
2019-01-29T00:32:27.295Z,4.94
2019-01-29T00:33:27.307Z,4.92
2019-01-29T00:34:27.586Z,5
2019-01-29T00:35:27.337Z,4.92
2019-01-29T00:36:27.358Z,5
2019-01-29T00:37:27.366Z,4.93
2019-01-29T00:38:27.125Z,4.92
2019-01-29T00:39:27.400Z,4.96
2019-01-29T00:40:27.159Z,4.93
2019-01-29T00:41:27.174Z,5.02
2019-01-29T00:42:27.461Z,4.93
2019-01-29T00:43:27.208Z,4.99
2019-01-29T00:44:27.226Z,5
2019-01-29T00:45:27.500Z,4.93
2019-01-29T00:46:27.775Z,4.93
2019-01-29T00:47:27.782Z,4.99
2019-01-29T00:48:27.542Z,4.92
2019-01-29T00:49:27.560Z,4.94
2019-01-29T00:50:27.315Z,4.94
2019-01-29T00:51:27.589Z,4.93
2019-01-29T00:52:27.605Z,4.96
2019-01-29T00:53:27.362Z,4.89
2019-01-29T00:54:27.650Z,4.97
2019-01-29T00:55:27.653Z,4.93
2019-01-29T00:56:27.407Z,4.94
2019-01-29T00:57:27.693Z,4.89
2019-01-29T00:58:27.444Z,4.92
2019-01-29T00:59:27.718Z,4.86
2019-01-29T01:00:27.473Z,4.89
2019-01-29T01:01:27.487Z,4.86
2019-01-29T01:02:27.767Z,4.94
2019-01-29T01:03:27.778Z,4.92
2019-01-29T01:04:28.057Z,4.94
2019-01-29T01:05:27.810Z,4.89
2019-01-29T01:06:27.580Z,4.94
2019-01-29T01:07:27.586Z,4.92
2019-01-29T01:08:27.603Z,4.94
2019-01-29T01:09:27.906Z,4.93
2019-01-29T01:10:27.889Z,4.96
2019-01-29T01:11:27.902Z,4.94
2019-01-29T01:12:28.178Z,4.89
2019-01-29T01:13:27.711Z,4.94
2019-01-29T01:14:27.950Z,4.86
2019-01-29T01:15:27.709Z,4.89
2019-01-29T01:16:27.720Z,4.89
2019-01-29T01:17:27.740Z,4.86
2019-01-29T01:18:27.754Z,4.93
2019-01-29T01:19:28.289Z,4.92
2019-01-29T01:20:28.046Z,4.97
2019-01-29T01:21:28.322Z,4.96
2019-01-29T01:22:27.818Z,4.9
2019-01-29T01:23:28.098Z,4.94
2019-01-29T01:24:27.851Z,4.94
2019-01-29T01:25:27.867Z,4.93
2019-01-29T01:26:28.143Z,4.89
2019-01-29T01:27:28.156Z,4.92
2019-01-29T01:28:27.916Z,4.89
2019-01-29T01:29:28.194Z,4.96
2019-01-29T01:30:27.956Z,4.89
2019-01-29T01:31:28.477Z,4.92
2019-01-29T01:32:27.977Z,4.89
2019-01-29T01:33:27.998Z,4.92
2019-01-29T01:34:28.264Z,4.92
2019-01-29T01:35:28.025Z,4.93
2019-01-29T01:36:28.038Z,4.96
2019-01-29T01:37:28.055Z,4.94
2019-01-29T01:38:28.326Z,4.9
2019-01-29T01:39:28.348Z,4.93
2019-01-29T01:40:28.620Z,4.93
2019-01-29T01:41:28.379Z,4.93
2019-01-29T01:42:28.394Z,4.9
2019-01-29T01:43:28.152Z,4.97
2019-01-29T01:44:28.163Z,4.93
2019-01-29T01:45:28.746Z,4.99
2019-01-29T01:46:28.194Z,4.92
2019-01-29T01:47:28.470Z,4.94
2019-01-29T01:48:28.229Z,4.97
2019-01-29T01:49:28.243Z,4.97
2019-01-29T01:50:28.516Z,4.96
2019-01-29T01:51:28.273Z,4.9
2019-01-29T01:52:28.546Z,4.96
2019-01-29T01:53:28.305Z,4.94
2019-01-29T01:54:28.582Z,4.96
2019-01-29T01:55:28.598Z,4.9
2019-01-29T01:56:28.873Z,4.97
2019-01-29T01:57:28.636Z,4.92
2019-01-29T01:58:28.647Z,4.96
2019-01-29T01:59:28.661Z,4.89
2019-01-29T02:00:28.934Z,4.92
2019-01-29T02:01:28.431Z,4.97
2019-01-29T02:02:28.972Z,4.92
2019-01-29T02:03:28.724Z,4.9
2019-01-29T02:04:28.739Z,4.94
2019-01-29T02:05:28.493Z,4.93
2019-01-29T02:06:28.769Z,4.89
2019-01-29T02:07:28.525Z,4.82
2019-01-29T02:08:28.805Z,4.89
2019-01-29T02:09:28.815Z,4.87
2019-01-29T02:10:28.576Z,4.92
2019-01-29T02:11:28.845Z,4.87
2019-01-29T02:12:29.957Z,4.93
2019-01-29T02:13:28.621Z,4.92
2019-01-29T02:14:29.151Z,4.93
2019-01-29T02:15:28.911Z,4.89
2019-01-29T02:16:28.671Z,4.93
2019-01-29T02:17:28.684Z,4.87
2019-01-29T02:18:28.701Z,4.9
2019-01-29T02:19:29.228Z,4.94
2019-01-29T02:20:28.991Z,4.89
2019-01-29T02:21:29.006Z,4.96
2019-01-29T02:22:29.025Z,4.92
2019-01-29T02:23:28.775Z,4.93
2019-01-29T02:24:28.792Z,4.93
2019-01-29T02:25:29.065Z,4.9
2019-01-29T02:26:29.087Z,4.93
2019-01-29T02:27:29.358Z,4.86
2019-01-29T02:28:28.856Z,4.84
2019-01-29T02:29:29.131Z,4.92
2019-01-29T02:30:29.416Z,4.9
2019-01-29T02:31:28.909Z,4.89
2019-01-29T02:32:28.924Z,4.78
2019-01-29T02:33:29.860Z,4.84
2019-01-29T02:34:29.228Z,4.89
2019-01-29T02:35:29.226Z,4.9
2019-01-29T02:36:29.243Z,4.82
2019-01-29T02:37:29.276Z,4.84
2019-01-29T02:38:29.027Z,4.84
2019-01-29T02:39:29.549Z,4.89
2019-01-29T02:40:29.564Z,4.84
2019-01-29T02:41:29.062Z,4.87
2019-01-29T02:42:29.604Z,4.87
2019-01-29T02:43:29.353Z,4.9
2019-01-29T02:44:29.110Z,4.86
2019-01-29T02:45:29.381Z,4.89
2019-01-29T02:46:29.145Z,4.89
2019-01-29T02:47:29.235Z,4.86
2019-01-29T02:48:29.441Z,4.89
2019-01-29T02:49:29.188Z,4.86
2019-01-29T02:50:29.197Z,4.92
2019-01-29T02:51:29.477Z,4.9
2019-01-29T02:52:29.231Z,4.89
2019-01-29T02:53:29.517Z,4.9
2019-01-29T02:54:29.778Z,4.87
2019-01-29T02:55:29.796Z,4.87
2019-01-29T02:56:29.296Z,4.89
2019-01-29T02:57:29.574Z,4.9
2019-01-29T02:58:29.588Z,4.89
2019-01-29T02:59:29.365Z,4.92
2019-01-29T03:00:29.876Z,4.89
2019-01-29T03:01:29.630Z,4.9
2019-01-29T03:02:29.388Z,4.93
2019-01-29T03:03:29.410Z,4.87
2019-01-29T03:04:29.683Z,4.93
2019-01-29T03:05:29.695Z,4.82
2019-01-29T03:06:29.713Z,4.9
2019-01-29T03:07:29.469Z,4.87
2019-01-29T03:08:29.486Z,4.86
2019-01-29T03:09:29.496Z,4.9
2019-01-29T03:10:29.777Z,4.89
2019-01-29T03:11:29.530Z,4.86
2019-01-29T03:12:30.059Z,4.89
2019-01-29T03:13:29.562Z,4.86
2019-01-29T03:14:30.105Z,4.92
2019-01-29T03:15:30.114Z,4.87
2019-01-29T03:16:29.862Z,4.9
2019-01-29T03:17:29.618Z,4.82
2019-01-29T03:18:29.930Z,4.82
2019-01-29T03:19:29.665Z,4.84
2019-01-29T03:20:29.666Z,4.84
2019-01-29T03:21:31.530Z,4.9
2019-01-29T03:22:29.960Z,4.89
2019-01-29T03:23:32.451Z,4.87
2019-01-29T03:24:29.988Z,4.9
2019-01-29T03:25:30.012Z,4.87
2019-01-29T03:26:29.765Z,4.87
2019-01-29T03:27:30.037Z,4.82
2019-01-29T03:28:30.054Z,4.86
2019-01-29T03:29:29.812Z,4.84
2019-01-29T03:30:30.092Z,4.9
2019-01-29T03:31:30.116Z,4.86
2019-01-29T03:32:30.119Z,4.9
2019-01-29T03:33:30.169Z,4.92
2019-01-29T03:34:30.003Z,4.9
2019-01-29T03:35:29.909Z,4.87
2019-01-29T03:36:30.210Z,4.94
2019-01-29T03:37:30.189Z,4.86
2019-01-29T03:38:30.465Z,4.87
2019-01-29T03:39:30.221Z,4.9
2019-01-29T03:40:30.256Z,4.87
2019-01-29T03:41:30.258Z,4.82
2019-01-29T03:42:30.275Z,4.84
2019-01-29T03:43:30.029Z,4.87
2019-01-29T03:44:30.302Z,4.87
2019-01-29T03:45:30.320Z,4.87
2019-01-29T03:46:30.341Z,4.89
2019-01-29T03:47:30.349Z,4.82
2019-01-29T03:48:30.382Z,4.92
2019-01-29T03:49:30.123Z,4.87
2019-01-29T03:50:31.429Z,4.87
2019-01-29T03:51:30.668Z,4.9
2019-01-29T03:52:30.169Z,4.87
2019-01-29T03:53:40.333Z,4.87
2019-01-29T03:54:30.201Z,4.89
2019-01-29T03:55:30.739Z,4.86
2019-01-29T03:56:30.235Z,4.86
2019-01-29T03:57:30.515Z,4.92
2019-01-29T03:58:30.528Z,4.87
2019-01-29T03:59:30.535Z,4.82
2019-01-29T04:00:30.559Z,4.93
2019-01-29T04:01:30.566Z,4.92
2019-01-29T04:02:30.324Z,4.93
2019-01-29T04:03:30.603Z,4.93
2019-01-29T04:04:30.895Z,4.87
2019-01-29T04:05:30.374Z,4.87
2019-01-29T04:06:30.646Z,4.9
2019-01-29T04:07:30.663Z,4.93
2019-01-29T04:08:30.681Z,4.87
2019-01-29T04:09:30.695Z,4.82
2019-01-29T04:10:30.707Z,4.84
2019-01-29T04:11:30.464Z,4.94
2019-01-29T04:12:30.742Z,4.94
2019-01-29T04:13:31.011Z,4.9
2019-01-29T04:14:30.515Z,4.89
2019-01-29T04:15:30.792Z,4.92
2019-01-29T04:16:30.543Z,4.93
2019-01-29T04:17:30.831Z,4.93
2019-01-29T04:18:30.838Z,4.96
2019-01-29T04:19:30.587Z,4.99
2019-01-29T04:20:31.122Z,4.93
2019-01-29T04:21:30.883Z,4.87
2019-01-29T04:22:30.643Z,4.96
2019-01-29T04:23:31.172Z,4.9
2019-01-29T04:24:30.929Z,4.97
2019-01-29T04:25:30.949Z,4.87
2019-01-29T04:26:30.705Z,4.94
2019-01-29T04:27:30.974Z,4.93
2019-01-29T04:28:30.992Z,4.96
2019-01-29T04:29:30.752Z,4.93
2019-01-29T04:30:31.032Z,4.93
2019-01-29T04:31:30.780Z,4.87
2019-01-29T04:32:31.055Z,4.92
2019-01-29T04:33:31.076Z,4.87
2019-01-29T04:34:31.190Z,4.89
2019-01-29T04:35:31.100Z,4.86
2019-01-29T04:36:30.860Z,4.9
2019-01-29T04:37:31.146Z,4.92
2019-01-29T04:38:31.152Z,4.9
2019-01-29T04:39:30.906Z,4.93
2019-01-29T04:40:31.185Z,4.96
2019-01-29T04:41:30.957Z,4.93
2019-01-29T04:42:31.478Z,4.94
2019-01-29T04:43:31.232Z,4.92
2019-01-29T04:44:31.243Z,4.9
2019-01-29T04:45:31.067Z,4.89
2019-01-29T04:46:31.279Z,4.93
2019-01-29T04:47:31.297Z,4.93
2019-01-29T04:48:31.315Z,4.89
2019-01-29T04:49:31.062Z,4.84
2019-01-29T04:50:31.615Z,4.9
2019-01-29T04:51:31.350Z,4.87
2019-01-29T04:52:31.380Z,4.96
2019-01-29T04:53:31.143Z,4.82
2019-01-29T04:54:31.147Z,4.89
2019-01-29T04:55:31.678Z,4.89
2019-01-29T04:56:31.169Z,4.92
2019-01-29T04:57:31.451Z,4.92
2019-01-29T04:58:31.206Z,4.86
2019-01-29T04:59:31.491Z,4.92
2019-01-29T05:00:31.766Z,4.89
2019-01-29T05:01:31.515Z,4.96
2019-01-29T05:02:31.528Z,4.97
2019-01-29T05:03:31.539Z,4.93
2019-01-29T05:04:31.368Z,4.94
2019-01-29T05:05:31.313Z,4.89
2019-01-29T05:06:31.852Z,4.89
2019-01-29T05:07:31.604Z,4.89
2019-01-29T05:08:31.885Z,4.92
2019-01-29T05:09:31.634Z,4.86
2019-01-29T05:10:31.391Z,4.92
2019-01-29T05:11:31.701Z,4.92
2019-01-29T05:12:31.426Z,4.9
2019-01-29T05:13:31.962Z,4.92
2019-01-29T05:14:31.456Z,4.92
2019-01-29T05:15:31.734Z,4.89
2019-01-29T05:16:31.487Z,4.93
2019-01-29T05:17:31.501Z,4.89
2019-01-29T05:18:32.201Z,4.89
2019-01-29T05:19:31.531Z,4.9
2019-01-29T05:20:31.547Z,4.89
2019-01-29T05:21:31.571Z,4.87
2019-01-29T05:22:31.592Z,4.86
2019-01-29T05:23:31.853Z,4.9
2019-01-29T05:24:31.623Z,4.87
2019-01-29T05:25:31.642Z,4.87
2019-01-29T05:26:31.901Z,4.92
2019-01-29T05:27:31.929Z,4.87
2019-01-29T05:28:31.675Z,4.82
2019-01-29T05:29:31.696Z,4.82
2019-01-29T05:30:32.221Z,4.89
2019-01-29T05:31:31.721Z,4.87
2019-01-29T05:32:31.736Z,4.86
2019-01-29T05:33:32.017Z,4.82
2019-01-29T05:34:32.028Z,4.86
2019-01-29T05:35:31.788Z,4.82
2019-01-29T05:36:32.061Z,4.82
2019-01-29T05:37:32.337Z,4.84
2019-01-29T05:38:32.091Z,4.84
2019-01-29T05:39:31.854Z,4.87
2019-01-29T05:40:32.121Z,4.89
2019-01-29T05:41:32.401Z,4.89
2019-01-29T05:42:32.153Z,4.87
2019-01-29T05:43:32.188Z,4.9
2019-01-29T05:44:32.183Z,4.87
2019-01-29T05:45:32.206Z,4.89
2019-01-29T05:46:32.481Z,4.9
2019-01-29T05:47:31.974Z,4.9
2019-01-29T05:48:32.248Z,4.86
2019-01-29T05:49:32.004Z,4.89
2019-01-29T05:50:32.279Z,4.82
2019-01-29T05:51:32.297Z,4.86
2019-01-29T05:52:32.311Z,4.87
2019-01-29T05:53:32.591Z,4.86
2019-01-29T05:54:32.343Z,4.92
2019-01-29T05:55:32.623Z,4.89
2019-01-29T05:56:32.385Z,4.92
2019-01-29T05:57:32.130Z,4.9
2019-01-29T05:58:32.666Z,4.9
2019-01-29T05:59:32.163Z,4.96
2019-01-29T06:00:32.781Z,4.87
2019-01-29T06:01:32.192Z,4.93
2019-01-29T06:02:32.472Z,4.92
2019-01-29T06:03:32.743Z,4.94
2019-01-29T06:04:32.498Z,4.86
2019-01-29T06:05:32.514Z,4.87
2019-01-29T06:06:32.539Z,4.9
2019-01-29T06:07:32.547Z,4.93
2019-01-29T06:08:32.563Z,4.87
2019-01-29T06:09:32.576Z,4.92
2019-01-29T06:10:32.597Z,4.71
2019-01-29T06:11:32.629Z,4.84
2019-01-29T06:12:32.367Z,4.82
2019-01-29T06:13:32.642Z,4.9
2019-01-29T06:14:32.658Z,4.87
2019-01-29T06:15:32.422Z,4.86
2019-01-29T06:16:32.433Z,4.8
2019-01-29T06:17:32.707Z,4.89
2019-01-29T06:18:32.465Z,4.89
2019-01-29T06:19:32.478Z,4.9
2019-01-29T06:20:32.516Z,4.82
2019-01-29T06:21:32.765Z,4.92
2019-01-29T06:22:32.796Z,4.92
2019-01-29T06:23:32.542Z,4.9
2019-01-29T06:24:32.563Z,4.87
2019-01-29T06:25:32.853Z,4.9
2019-01-29T06:26:33.112Z,4.86
2019-01-29T06:27:32.860Z,4.84
2019-01-29T06:28:33.136Z,4.92
2019-01-29T06:29:32.636Z,4.89
2019-01-29T06:30:32.655Z,4.87
2019-01-29T06:31:32.672Z,4.86
2019-01-29T06:32:32.751Z,4.87
2019-01-29T06:33:33.211Z,4.86
2019-01-29T06:34:32.985Z,4.84
2019-01-29T06:35:33.254Z,4.9
2019-01-29T06:36:33.004Z,4.87
2019-01-29T06:37:33.019Z,4.82
2019-01-29T06:38:33.033Z,4.8
2019-01-29T06:39:32.795Z,4.89
2019-01-29T06:40:33.325Z,4.82
2019-01-29T06:41:33.080Z,4.87
2019-01-29T06:42:33.095Z,4.87
2019-01-29T06:43:32.859Z,4.9
2019-01-29T06:44:33.129Z,4.86
2019-01-29T06:45:32.897Z,4.84
2019-01-29T06:46:32.900Z,4.86
2019-01-29T06:47:33.177Z,4.89
2019-01-29T06:48:33.190Z,4.86
2019-01-29T06:49:33.466Z,4.89
2019-01-29T06:50:32.961Z,4.89
2019-01-29T06:51:32.980Z,4.92
2019-01-29T06:52:33.455Z,4.89
2019-01-29T06:53:33.008Z,4.9
2019-01-29T06:54:38.761Z,4.89
2019-01-29T06:55:33.362Z,4.86
2019-01-29T06:56:33.329Z,4.84
2019-01-29T06:57:33.330Z,4.9
2019-01-29T06:58:33.360Z,4.89
2019-01-29T06:59:33.366Z,4.96
2019-01-29T07:00:33.384Z,4.86
2019-01-29T07:01:33.139Z,4.9
2019-01-29T07:02:33.413Z,4.84
2019-01-29T07:03:33.426Z,4.93
2019-01-29T07:04:33.440Z,4.93
2019-01-29T07:05:33.505Z,4.9
2019-01-29T07:06:33.212Z,4.93
2019-01-29T07:07:33.228Z,4.92
2019-01-29T07:08:33.250Z,4.92
2019-01-29T07:09:33.261Z,4.87
2019-01-29T07:10:33.540Z,4.9
2019-01-29T07:11:33.317Z,4.87
2019-01-29T07:12:33.567Z,4.89
2019-01-29T07:13:33.582Z,4.97
2019-01-29T07:14:33.343Z,4.94
2019-01-29T07:15:33.617Z,4.96
2019-01-29T07:16:33.632Z,4.87
2019-01-29T07:17:33.645Z,4.97
2019-01-29T07:18:33.666Z,4.96
2019-01-29T07:19:33.690Z,4.89
2019-01-29T07:20:33.437Z,4.93
2019-01-29T07:21:33.452Z,4.9
2019-01-29T07:22:33.983Z,4.9
2019-01-29T07:23:33.478Z,4.9
2019-01-29T07:24:33.493Z,4.9
2019-01-29T07:25:34.029Z,4.86
2019-01-29T07:26:33.527Z,4.92
2019-01-29T07:27:33.802Z,4.84
2019-01-29T07:28:33.822Z,4.87
2019-01-29T07:29:33.831Z,4.89
2019-01-29T07:30:34.110Z,4.82
2019-01-29T07:31:33.611Z,4.94
2019-01-29T07:32:33.883Z,4.92
2019-01-29T07:33:33.908Z,4.93
2019-01-29T07:34:33.913Z,4.89
2019-01-29T07:35:33.931Z,4.97
2019-01-29T07:36:33.942Z,4.97
2019-01-29T07:37:33.701Z,4.89
2019-01-29T07:38:33.713Z,4.92
2019-01-29T07:39:33.992Z,4.93
2019-01-29T07:40:33.756Z,4.94
2019-01-29T07:41:34.031Z,4.9
2019-01-29T07:42:34.036Z,4.92
2019-01-29T07:43:34.052Z,4.92
2019-01-29T07:44:34.070Z,4.96
2019-01-29T07:45:34.079Z,4.92
2019-01-29T07:46:33.848Z,4.93
2019-01-29T07:47:33.855Z,4.94
2019-01-29T07:48:33.872Z,4.96
2019-01-29T07:49:33.888Z,4.94
2019-01-29T07:50:34.169Z,4.97
2019-01-29T07:51:33.945Z,4.96
2019-01-29T07:52:34.195Z,4.93
2019-01-29T07:53:34.206Z,4.93
2019-01-29T07:54:37.738Z,5.02
2019-01-29T07:55:34.240Z,4.96
2019-01-29T07:56:33.999Z,4.94
2019-01-29T07:57:34.015Z,4.97
2019-01-29T07:58:34.288Z,4.97
2019-01-29T07:59:38.102Z,4.94
2019-01-29T08:00:34.330Z,4.99
2019-01-29T08:01:34.593Z,5.11
2019-01-29T08:02:34.096Z,5.04
2019-01-29T08:03:38.104Z,5.04
2019-01-29T08:04:34.396Z,5.04
2019-01-29T08:05:34.401Z,5.07
2019-01-29T08:06:34.429Z,5.02
2019-01-29T08:07:34.429Z,5.15
2019-01-29T08:08:34.460Z,5.04
2019-01-29T08:09:34.461Z,5
2019-01-29T08:10:34.749Z,5.1
2019-01-29T08:11:34.493Z,5.07
2019-01-29T08:12:34.269Z,5.07
2019-01-29T08:13:34.520Z,5.08
2019-01-29T08:14:34.543Z,5.15
2019-01-29T08:15:34.577Z,5.15
2019-01-29T08:16:34.593Z,5.08
2019-01-29T08:17:34.846Z,5.08
2019-01-29T08:18:34.879Z,5.11
2019-01-29T08:19:34.878Z,5.15
2019-01-29T08:20:34.658Z,5.1
2019-01-29T08:21:34.393Z,5.11
2019-01-29T08:22:34.672Z,5.11
2019-01-29T08:23:34.428Z,5.11
2019-01-29T08:24:34.440Z,5.15
2019-01-29T08:25:34.456Z,5.15
2019-01-29T08:26:34.470Z,5.17
2019-01-29T08:27:34.746Z,5.11
2019-01-29T08:28:34.764Z,5.17
2019-01-29T08:29:35.366Z,5.12
2019-01-29T08:30:34.803Z,5.05
2019-01-29T08:31:34.551Z,5.14
2019-01-29T08:32:35.101Z,5.17
2019-01-29T08:33:34.838Z,5.14
2019-01-29T08:34:34.871Z,5.12
2019-01-29T08:35:34.871Z,5.12
2019-01-29T08:36:35.157Z,5.12
2019-01-29T08:37:34.642Z,5.17
2019-01-29T08:38:34.937Z,5.15
2019-01-29T08:39:34.679Z,5.21
2019-01-29T08:40:35.210Z,5.18
2019-01-29T08:41:34.972Z,5.23
2019-01-29T08:42:35.244Z,5.26
2019-01-29T08:43:34.738Z,5.23
2019-01-29T08:44:35.011Z,5.26
2019-01-29T08:45:35.302Z,5.25
2019-01-29T08:46:35.313Z,5.26
2019-01-29T08:47:35.059Z,5.26
2019-01-29T08:48:35.108Z,5.26
2019-01-29T08:49:35.095Z,5.2
2019-01-29T08:50:34.860Z,5.38
2019-01-29T08:51:35.124Z,5.35
2019-01-29T08:52:35.149Z,5.3
2019-01-29T08:53:35.100Z,5.29
2019-01-29T08:54:35.444Z,5.35
2019-01-29T08:55:35.257Z,5.41
2019-01-29T08:56:34.960Z,5.32
2019-01-29T08:57:35.218Z,5.33
2019-01-29T08:58:34.986Z,5.39
2019-01-29T08:59:35.251Z,5.38
2019-01-29T09:00:35.273Z,5.39
2019-01-29T09:01:35.026Z,5.39
2019-01-29T09:02:35.310Z,5.38
2019-01-29T09:03:35.054Z,5.38
2019-01-29T09:04:35.357Z,5.39
2019-01-29T09:05:35.350Z,5.44
2019-01-29T09:06:35.381Z,5.41
2019-01-29T09:07:35.116Z,5.41
2019-01-29T09:08:35.150Z,5.38
2019-01-29T09:09:35.415Z,5.35
2019-01-29T09:10:35.709Z,5.38
2019-01-29T09:11:35.698Z,5.39
2019-01-29T09:12:35.209Z,5.35
2019-01-29T09:13:35.212Z,5.38
2019-01-29T09:14:35.497Z,5.41
2019-01-29T09:15:35.501Z,5.41
2019-01-29T09:16:35.582Z,5.41
2019-01-29T09:17:35.535Z,5.35
2019-01-29T09:18:35.561Z,5.41
2019-01-29T09:19:35.566Z,5.5
2019-01-29T09:20:35.596Z,5.47
2019-01-29T09:21:35.341Z,5.47
2019-01-29T09:22:35.367Z,5.56
2019-01-29T09:23:35.627Z,5.44
2019-01-29T09:24:35.395Z,5.47
2019-01-29T09:25:35.405Z,5.48
2019-01-29T09:26:35.684Z,5.56
2019-01-29T09:27:35.693Z,5.44
2019-01-29T09:28:36.009Z,5.51
2019-01-29T09:29:35.467Z,5.48
2019-01-29T09:30:35.740Z,5.61
2019-01-29T09:31:35.756Z,5.56
2019-01-29T09:32:35.513Z,5.56
2019-01-29T09:33:35.786Z,5.53
2019-01-29T09:34:35.806Z,5.53
2019-01-29T09:35:35.825Z,5.62
2019-01-29T09:36:36.291Z,5.66
2019-01-29T09:37:36.110Z,5.65
2019-01-29T09:38:35.866Z,5.64
2019-01-29T09:39:36.144Z,5.72
2019-01-29T09:40:35.904Z,5.72
2019-01-29T09:41:35.920Z,5.71
2019-01-29T09:42:35.677Z,5.72
2019-01-29T09:43:35.739Z,5.87
2019-01-29T09:44:36.222Z,5.79
2019-01-29T09:45:35.724Z,5.83
2019-01-29T09:46:35.746Z,5.83
2019-01-29T09:47:36.008Z,5.86
2019-01-29T09:48:35.771Z,5.9
2019-01-29T09:49:35.783Z,5.91
2019-01-29T09:50:36.063Z,5.87
2019-01-29T09:51:36.076Z,5.9
2019-01-29T09:52:36.092Z,5.89
2019-01-29T09:53:35.851Z,5.91
2019-01-29T09:54:36.123Z,5.94
2019-01-29T09:55:35.881Z,5.91
2019-01-29T09:56:36.154Z,5.89
2019-01-29T09:57:36.429Z,5.87
2019-01-29T09:58:35.929Z,5.91
2019-01-29T09:59:36.462Z,5.89
2019-01-29T10:00:36.225Z,5.86
2019-01-29T10:01:36.242Z,5.98
2019-01-29T10:02:35.992Z,5.93
2019-01-29T10:03:36.528Z,6.01
2019-01-29T10:04:36.284Z,5.97
2019-01-29T10:05:36.309Z,5.99
2019-01-29T10:06:36.317Z,5.98
2019-01-29T10:07:36.330Z,6.07
2019-01-29T10:08:36.353Z,6.08
2019-01-29T10:09:36.100Z,6.08
2019-01-29T10:10:36.123Z,6.05
2019-01-29T10:11:36.400Z,6.17
2019-01-29T10:12:36.413Z,6.16
2019-01-29T10:13:36.167Z,6.07
2019-01-29T10:14:36.443Z,6.08
2019-01-29T10:15:36.462Z,6.27
2019-01-29T10:16:36.227Z,6.24
2019-01-29T10:17:36.233Z,6.19
2019-01-29T10:18:36.247Z,6.26
2019-01-29T10:19:37.733Z,6.3
2019-01-29T10:20:36.541Z,6.3
2019-01-29T10:21:36.554Z,6.26
2019-01-29T10:22:36.571Z,6.27
2019-01-29T10:23:36.844Z,6.22
2019-01-29T10:24:36.350Z,6.31
2019-01-29T10:25:42.495Z,6.3
2019-01-29T10:26:36.377Z,6.3
2019-01-29T10:27:36.393Z,6.38
2019-01-29T10:28:36.669Z,6.33
2019-01-29T10:29:36.686Z,6.38
2019-01-29T10:30:36.703Z,6.35
2019-01-29T10:31:36.723Z,6.44
2019-01-29T10:32:36.737Z,6.45
2019-01-29T10:33:37.023Z,6.49
2019-01-29T10:34:37.052Z,6.46
2019-01-29T10:35:36.781Z,6.45
2019-01-29T10:36:38.906Z,6.39
2019-01-29T10:37:36.556Z,6.52
2019-01-29T10:38:36.836Z,6.48
2019-01-29T10:39:36.846Z,6.62
2019-01-29T10:40:37.131Z,6.62
2019-01-29T10:41:37.144Z,6.67
2019-01-29T10:42:36.894Z,6.67
2019-01-29T10:43:36.650Z,6.72
2019-01-29T10:44:36.687Z,6.75
2019-01-29T10:45:36.945Z,6.82
2019-01-29T10:46:36.699Z,6.78
2019-01-29T10:47:36.721Z,6.89
2019-01-29T10:48:36.734Z,6.88
2019-01-29T10:49:37.017Z,6.93
2019-01-29T10:50:37.028Z,6.96
2019-01-29T10:51:37.048Z,6.92
2019-01-29T10:52:37.084Z,6.89
2019-01-29T10:53:37.074Z,6.89
2019-01-29T10:54:37.114Z,6.89
2019-01-29T10:55:46.692Z,6.88
2019-01-29T10:56:37.395Z,6.82
2019-01-29T10:57:36.882Z,6.82
2019-01-29T10:58:36.899Z,6.72
2019-01-29T10:59:36.913Z,6.7
2019-01-29T11:00:36.929Z,6.69
2019-01-29T11:01:37.204Z,6.75
2019-01-29T11:02:36.961Z,6.75
2019-01-29T11:03:37.002Z,6.67
2019-01-29T11:04:37.250Z,6.66
2019-01-29T11:05:37.810Z,6.66
2019-01-29T11:06:37.285Z,6.66
2019-01-29T11:07:37.302Z,6.7
2019-01-29T11:08:37.120Z,6.64
2019-01-29T11:09:37.605Z,6.78
2019-01-29T11:10:37.615Z,6.7
2019-01-29T11:11:37.107Z,6.79
2019-01-29T11:12:37.391Z,6.81
2019-01-29T11:13:37.400Z,6.84
2019-01-29T11:14:37.669Z,6.88
2019-01-29T11:15:37.171Z,6.96
2019-01-29T11:16:37.455Z,6.92
2019-01-29T11:17:37.462Z,7.05
2019-01-29T11:18:37.222Z,7.06
2019-01-29T11:19:39.199Z,7.05
2019-01-29T11:20:37.510Z,7.05
2019-01-29T11:21:37.270Z,7.17
2019-01-29T11:22:37.545Z,7.2
2019-01-29T11:23:37.820Z,7.23
2019-01-29T11:24:37.322Z,7.2
2019-01-29T11:25:37.339Z,7.17
2019-01-29T11:26:37.870Z,7.17
2019-01-29T11:27:37.713Z,7.17
2019-01-29T11:28:37.646Z,7.32
2019-01-29T11:29:37.708Z,7.28
2019-01-29T11:30:37.691Z,7.29
2019-01-29T11:31:37.434Z,7.32
2019-01-29T11:32:37.979Z,7.35
2019-01-29T11:33:37.985Z,7.35
2019-01-29T11:34:37.794Z,7.39
2019-01-29T11:35:37.759Z,7.32
2019-01-29T11:36:37.517Z,7.31
2019-01-29T11:37:38.052Z,7.31
2019-01-29T11:38:37.807Z,7.29
2019-01-29T11:39:37.825Z,7.29
2019-01-29T11:40:37.843Z,7.28
2019-01-29T11:41:37.600Z,7.32
2019-01-29T11:42:37.617Z,7.29
2019-01-29T11:43:37.890Z,7.33
2019-01-29T11:44:37.915Z,7.36
2019-01-29T11:45:37.934Z,7.29
2019-01-29T11:46:37.686Z,7.28
2019-01-29T11:47:37.697Z,7.32
2019-01-29T11:48:37.716Z,7.18
2019-01-29T11:49:38.041Z,7.18
2019-01-29T11:50:38.011Z,7.15
2019-01-29T11:51:38.022Z,7.29
2019-01-29T11:52:37.777Z,7.15
2019-01-29T11:53:38.051Z,7.18
2019-01-29T11:54:38.120Z,7.07
2019-01-29T11:55:38.084Z,7.06
2019-01-29T11:56:38.111Z,7.11
2019-01-29T11:57:37.860Z,7.06
2019-01-29T11:58:37.877Z,7.06
2019-01-29T11:59:38.163Z,7.1
2019-01-29T12:00:38.174Z,6.99
2019-01-29T12:01:38.186Z,6.99
2019-01-29T12:02:38.201Z,6.88
2019-01-29T12:03:38.220Z,6.93
2019-01-29T12:04:38.492Z,6.96
2019-01-29T12:05:38.308Z,6.89
2019-01-29T12:06:38.266Z,6.87
2019-01-29T12:07:38.285Z,6.89
2019-01-29T12:08:38.300Z,6.92
2019-01-29T12:09:38.371Z,6.89
2019-01-29T12:10:38.334Z,6.96
2019-01-29T12:11:38.091Z,6.84
2019-01-29T12:12:38.107Z,6.93
2019-01-29T12:13:38.385Z,6.88
2019-01-29T12:14:38.664Z,6.89
2019-01-29T12:15:38.678Z,6.95
2019-01-29T12:16:38.445Z,7
2019-01-29T12:17:38.190Z,6.97
2019-01-29T12:18:38.467Z,6.96
2019-01-29T12:19:38.484Z,6.97
2019-01-29T12:20:38.756Z,7.05
2019-01-29T12:21:38.258Z,7.06
2019-01-29T12:22:38.595Z,6.96
2019-01-29T12:23:38.803Z,7.05
2019-01-29T12:24:38.565Z,6.96
2019-01-29T12:25:38.583Z,6.97
2019-01-29T12:26:38.353Z,6.85
2019-01-29T12:27:38.618Z,6.97
2019-01-29T12:28:38.889Z,6.96
2019-01-29T12:29:38.437Z,6.92
2019-01-29T12:30:38.663Z,6.88
2019-01-29T12:31:38.424Z,6.93
2019-01-29T12:32:38.699Z,6.85
2019-01-29T12:33:38.974Z,6.84
2019-01-29T12:34:38.778Z,6.96
2019-01-29T12:35:38.489Z,6.99
2019-01-29T12:36:38.765Z,7
2019-01-29T12:37:38.779Z,7
2019-01-29T12:38:38.796Z,6.95
2019-01-29T12:39:38.811Z,6.96
2019-01-29T12:40:39.634Z,7.07
2019-01-29T12:41:38.856Z,7.05
2019-01-29T12:42:38.601Z,6.99
2019-01-29T12:43:38.621Z,7.07
2019-01-29T12:44:38.896Z,7.03
2019-01-29T12:45:38.911Z,7.14
2019-01-29T12:46:38.929Z,7.07
2019-01-29T12:47:38.734Z,7.14
2019-01-29T12:48:38.959Z,7.06
2019-01-29T12:49:39.031Z,7.1
2019-01-29T12:50:39.252Z,7.02
2019-01-29T12:51:38.754Z,7.05
2019-01-29T12:52:38.769Z,7.14
2019-01-29T12:53:38.788Z,7.05
2019-01-29T12:54:38.951Z,7.1
2019-01-29T12:55:38.878Z,7.05
2019-01-29T12:56:39.371Z,7.03
2019-01-29T12:57:39.367Z,7.14
2019-01-29T12:58:39.126Z,7.06
2019-01-29T12:59:38.883Z,7.17
2019-01-29T13:00:39.421Z,7.14
2019-01-29T13:01:38.924Z,7.18
2019-01-29T13:02:39.191Z,7.23
2019-01-29T13:03:39.209Z,7.2
2019-01-29T13:04:38.966Z,7.18
2019-01-29T13:05:38.987Z,7.2
2019-01-29T13:06:38.998Z,7.25
2019-01-29T13:07:39.019Z,7.2
2019-01-29T13:08:39.298Z,7.15
2019-01-29T13:09:39.097Z,7.33
2019-01-29T13:10:39.075Z,7.24
2019-01-29T13:11:39.339Z,7.29
2019-01-29T13:12:41.155Z,7.29
2019-01-29T13:13:39.627Z,7.32
2019-01-29T13:14:39.646Z,7.38
2019-01-29T13:15:39.404Z,7.48
2019-01-29T13:16:39.682Z,7.5
2019-01-29T13:17:39.443Z,7.5
2019-01-29T13:18:39.460Z,7.6
2019-01-29T13:19:39.469Z,7.56
2019-01-29T13:20:39.486Z,7.57
2019-01-29T13:21:39.505Z,7.53
2019-01-29T13:22:39.264Z,7.6